TimeCET,TemperatureF,Dew PointF,Humidity,Sea Level PressureIn,VisibilityMPH,Wind Direction,Wind SpeedMPH,Gust SpeedMPH,PrecipitationIn,Events,Conditions,WindDirDegrees,DateUTC
12:00 AM,35.6,26.6,70,30.12,-9999.0,East,6.9,-,N/A,,Clear,90,2013-03-05 23:00:00
12:30 AM,35.6,26.6,70,30.15,-9999.0,East,6.9,-,N/A,,Clear,90,2013-03-05 23:30:00
1:00 AM,35.6,26.6,70,30.12,-9999.0,East,8.1,-,N/A,,Clear,90,2013-03-06 00:00:00
1:30 AM,33.8,26.6,75,30.12,-9999.0,East,8.1,-,N/A,,Clear,100,2013-03-06 00:30:00
2:00 AM,35.6,26.6,70,30.12,-9999.0,East,9.2,-,N/A,,Clear,90,2013-03-06 01:00:00
2:30 AM,35.6,28.4,75,30.12,-9999.0,East,9.2,-,N/A,,Clear,90,2013-03-06 01:30:00
3:00 AM,35.6,28.4,75,30.09,-9999.0,East,9.2,-,N/A,,Clear,100,2013-03-06 02:00:00
3:30 AM,35.6,28.4,75,30.09,-9999.0,East,9.2,-,N/A,,Clear,90,2013-03-06 02:30:00
4:00 AM,33.8,28.4,81,30.09,-9999.0,East,6.9,-,N/A,,Clear,90,2013-03-06 03:00:00
4:30 AM,33.8,28.4,81,30.09,-9999.0,East,4.6,-,N/A,,Clear,80,2013-03-06 03:30:00
5:00 AM,35.6,28.4,75,30.09,-9999.0,ENE,6.9,-,N/A,,Clear,70,2013-03-06 04:00:00
5:30 AM,32.0,26.6,80,30.06,-9999.0,East,5.8,-,N/A,,Clear,90,2013-03-06 04:30:00
6:00 AM,32.0,26.6,80,30.06,-9999.0,East,8.1,-,N/A,,Clear,100,2013-03-06 05:00:00
6:30 AM,30.2,26.6,86,30.06,-9999.0,East,4.6,-,N/A,,Clear,100,2013-03-06 05:30:00
7:00 AM,32.0,28.4,87,30.06,-9999.0,Variable,1.2,-,N/A,,Clear,0,2013-03-06 06:00:00
7:30 AM,35.6,30.2,81,30.06,-9999.0,East,4.6,-,N/A,,Clear,80,2013-03-06 06:30:00
8:00 AM,37.4,30.2,75,30.06,-9999.0,East,10.4,-,N/A,,Clear,100,2013-03-06 07:00:00
8:30 AM,37.4,30.2,75,30.06,-9999.0,East,10.4,-,N/A,,Clear,100,2013-03-06 07:30:00
9:00 AM,39.2,30.2,70,30.06,-9999.0,ESE,6.9,-,N/A,,Clear,110,2013-03-06 08:00:00
9:30 AM,41.0,30.2,65,30.04,-9999.0,East,10.4,-,N/A,,Clear,100,2013-03-06 08:30:00
10:00 AM,41.0,30.2,65,30.04,-9999.0,East,8.1,-,N/A,,Clear,80,2013-03-06 09:00:00
10:30 AM,41.0,32.0,70,30.04,-9999.0,East,9.2,-,N/A,,Clear,100,2013-03-06 09:30:00
11:00 AM,42.8,32.0,66,30.04,-9999.0,East,10.4,-,N/A,,Clear,100,2013-03-06 10:00:00
11:30 AM,44.6,33.8,66,30.01,-9999.0,East,11.5,-,N/A,,Clear,80,2013-03-06 10:30:00
12:00 PM,46.4,35.6,66,30.01,-9999.0,East,10.4,-,N/A,,Clear,100,2013-03-06 11:00:00
12:30 PM,46.4,33.8,62,29.98,-9999.0,East,9.2,-,N/A,,Clear,90,2013-03-06 11:30:00
1:00 PM,50.0,35.6,58,29.98,-9999.0,East,10.4,-,N/A,,Clear,80,2013-03-06 12:00:00
1:30 PM,48.2,35.6,62,29.95,-9999.0,East,6.9,-,N/A,,Clear,100,2013-03-06 12:30:00
2:00 PM,50.0,35.6,58,29.95,-9999.0,ENE,6.9,-,N/A,,Clear,70,2013-03-06 13:00:00
2:30 PM,51.8,37.4,58,29.95,-9999.0,East,6.9,-,N/A,,Clear,90,2013-03-06 13:30:00
3:00 PM,51.8,37.4,58,29.92,-9999.0,ESE,5.8,-,N/A,,Clear,110,2013-03-06 14:00:00
3:30 PM,51.8,39.2,62,29.92,5.0,Variable,3.5,-,N/A,Rain,Light Rain,0,2013-03-06 14:30:00
4:00 PM,53.6,35.6,51,29.89,6.2,SE,9.2,-,N/A,,Mostly Cloudy,140,2013-03-06 15:00:00
4:30 PM,51.8,37.4,58,29.89,6.2,SE,8.1,-,N/A,,Mostly Cloudy,130,2013-03-06 15:30:00
5:00 PM,50.0,37.4,62,29.86,6.2,ESE,9.2,-,N/A,,Mostly Cloudy,110,2013-03-06 16:00:00
5:30 PM,50.0,37.4,62,29.86,6.2,ESE,6.9,-,N/A,,Mostly Cloudy,110,2013-03-06 16:30:00
6:00 PM,48.2,37.4,66,29.86,-9999.0,East,8.1,-,N/A,,Clear,100,2013-03-06 17:00:00
6:30 PM,50.0,37.4,62,29.86,5.0,East,8.1,-,N/A,,Overcast,100,2013-03-06 17:30:00
7:00 PM,48.2,39.2,71,29.86,5.0,East,8.1,-,N/A,,Mostly Cloudy,100,2013-03-06 18:00:00
7:30 PM,48.2,39.2,71,29.86,-9999.0,SE,5.8,-,N/A,,Clear,140,2013-03-06 18:30:00
8:00 PM,48.2,39.2,71,29.86,-9999.0,ESE,8.1,-,N/A,,Clear,120,2013-03-06 19:00:00
8:30 PM,48.2,39.2,71,29.86,-9999.0,SE,8.1,-,N/A,,Clear,140,2013-03-06 19:30:00
9:00 PM,48.2,39.2,71,29.86,-9999.0,SSE,6.9,-,N/A,,Clear,150,2013-03-06 20:00:00
9:30 PM,48.2,39.2,71,29.86,-9999.0,SE,5.8,-,N/A,,Clear,140,2013-03-06 20:30:00
10:00 PM,50.0,39.2,66,29.83,-9999.0,SSE,8.1,-,N/A,,Clear,150,2013-03-06 21:00:00
10:30 PM,48.2,39.2,71,29.83,-9999.0,SE,6.9,-,N/A,,Clear,140,2013-03-06 21:30:00
11:00 PM,48.2,39.2,71,29.83,-9999.0,SE,6.9,-,N/A,,Clear,140,2013-03-06 22:00:00
11:30 PM,48.2,39.2,71,29.83,-9999.0,SE,6.9,-,N/A,,Clear,140,2013-03-06 22:30:00